sensor_id;sensor_type;location;lat;lon;timestamp;P1;durP1;ratioP1;P2;durP2;ratioP2
28455;SDS011;15682;56.742;38.866;2023-04-03T00:01:39;19.2;;;10.2;;
28455;SDS011;15682;56.742;38.866;2023-04-03T00:03:39;14.2;;;7.8;;
28455;SDS011;15682;56.742;38.866;2023-04-03T00:05:39;15.5;;;8.8;;
28455;SDS011;15682;56.742;38.866;2023-04-03T00:07:39;15.7;;;9.2;;
28455;SDS011;15682;56.742;38.866;2023-04-03T00:09:39;15.8;;;9.0;;
28455;SDS011;15682;56.742;38.866;2023-04-03T00:11:39;16.4;;;8.4;;
28455;SDS011;15682;56.742;38.866;2023-04-03T00:13:39;16.2;;;8.3;;
28455;SDS011;15682;56.742;38.866;2023-04-03T00:15:39;18.1;;;8.7;;
28455;SDS011;15682;56.742;38.866;2023-04-03T00:17:39;13.3;;;8.6;;
28455;SDS011;15682;56.742;38.866;2023-04-03T00:19:39;17.1;;;8.9;;
28455;SDS011;15682;56.742;38.866;2023-04-03T00:21:39;14.6;;;8.2;;
28455;SDS011;15682;56.742;38.866;2023-04-03T00:23:39;14.1;;;8.6;;
28455;SDS011;15682;56.742;38.866;2023-04-03T00:25:39;16.2;;;8.7;;
28455;SDS011;15682;56.742;38.866;2023-04-03T00:27:39;15.5;;;8.0;;
28455;SDS011;15682;56.742;38.866;2023-04-03T00:29:39;14.6;;;8.7;;
28455;SDS011;15682;56.742;38.866;2023-04-03T00:31:39;13.6;;;8.2;;
28455;SDS011;15682;56.742;38.866;2023-04-03T00:33:40;16.6;;;8.6;;
28455;SDS011;15682;56.742;38.866;2023-04-03T00:35:40;14.8;;;8.4;;
28455;SDS011;15682;56.742;38.866;2023-04-03T00:37:40;15.1;;;8.6;;
28455;SDS011;15682;56.742;38.866;2023-04-03T00:39:40;15.8;;;9.1;;
28455;SDS011;15682;56.742;38.866;2023-04-03T00:41:40;17.9;;;8.6;;
28455;SDS011;15682;56.742;38.866;2023-04-03T00:43:40;15.6;;;8.4;;
28455;SDS011;15682;56.742;38.866;2023-04-03T00:45:40;15.4;;;8.5;;
28455;SDS011;15682;56.742;38.866;2023-04-03T00:47:40;13.3;;;8.6;;
28455;SDS011;15682;56.742;38.866;2023-04-03T00:49:40;18.0;;;8.7;;
28455;SDS011;15682;56.742;38.866;2023-04-03T00:51:40;14.9;;;8.8;;
28455;SDS011;15682;56.742;38.866;2023-04-03T00:53:41;15.3;;;8.5;;
28455;SDS011;15682;56.742;38.866;2023-04-03T00:55:40;16.7;;;8.2;;
28455;SDS011;15682;56.742;38.866;2023-04-03T00:57:40;14.8;;;7.8;;
28455;SDS011;15682;56.742;38.866;2023-04-03T00:59:41;17.1;;;8.1;;
28455;SDS011;15682;56.742;38.866;2023-04-03T01:01:40;13.3;;;7.6;;
28455;SDS011;15682;56.742;38.866;2023-04-03T01:03:40;20.0;;;8.5;;
28455;SDS011;15682;56.742;38.866;2023-04-03T01:05:40;14.7;;;8.2;;
28455;SDS011;15682;56.742;38.866;2023-04-03T01:07:40;18.8;;;8.2;;
28455;SDS011;15682;56.742;38.866;2023-04-03T01:09:41;15.3;;;8.0;;
28455;SDS011;15682;56.742;38.866;2023-04-03T01:11:41;12.6;;;8.0;;
28455;SDS011;15682;56.742;38.866;2023-04-03T01:13:41;18.1;;;8.1;;
28455;SDS011;15682;56.742;38.866;2023-04-03T01:15:41;14.6;;;8.2;;
28455;SDS011;15682;56.742;38.866;2023-04-03T01:17:42;18.2;;;8.7;;
28455;SDS011;15682;56.742;38.866;2023-04-03T01:19:41;15.0;;;8.4;;
28455;SDS011;15682;56.742;38.866;2023-04-03T01:21:47;15.0;;;7.9;;
28455;SDS011;15682;56.742;38.866;2023-04-03T01:23:45;16.3;;;8.6;;
28455;SDS011;15682;56.742;38.866;2023-04-03T01:25:42;15.5;;;8.1;;
28455;SDS011;15682;56.742;38.866;2023-04-03T01:27:41;16.5;;;8.2;;
28455;SDS011;15682;56.742;38.866;2023-04-03T01:29:41;18.9;;;8.5;;
28455;SDS011;15682;56.742;38.866;2023-04-03T01:31:44;12.7;;;7.8;;
28455;SDS011;15682;56.742;38.866;2023-04-03T01:33:42;14.8;;;8.6;;
28455;SDS011;15682;56.742;38.866;2023-04-03T01:35:41;19.6;;;7.9;;
28455;SDS011;15682;56.742;38.866;2023-04-03T01:37:41;16.0;;;8.1;;
28455;SDS011;15682;56.742;38.866;2023-04-03T01:39:42;15.4;;;7.9;;
28455;SDS011;15682;56.742;38.866;2023-04-03T01:41:42;15.4;;;8.2;;
28455;SDS011;15682;56.742;38.866;2023-04-03T01:43:42;16.1;;;8.7;;
28455;SDS011;15682;56.742;38.866;2023-04-03T01:45:42;15.6;;;8.3;;
28455;SDS011;15682;56.742;38.866;2023-04-03T01:47:42;16.3;;;8.8;;
28455;SDS011;15682;56.742;38.866;2023-04-03T01:49:42;17.4;;;8.8;;
28455;SDS011;15682;56.742;38.866;2023-04-03T01:51:42;17.6;;;8.4;;
28455;SDS011;15682;56.742;38.866;2023-04-03T01:53:42;20.0;;;9.1;;
28455;SDS011;15682;56.742;38.866;2023-04-03T01:55:42;17.4;;;8.5;;
28455;SDS011;15682;56.742;38.866;2023-04-03T01:57:42;16.3;;;8.9;;
28455;SDS011;15682;56.742;38.866;2023-04-03T01:59:42;19.7;;;9.1;;
28455;SDS011;15682;56.742;38.866;2023-04-03T02:01:42;15.4;;;8.9;;
28455;SDS011;15682;56.742;38.866;2023-04-03T02:03:42;15.7;;;8.3;;
28455;SDS011;15682;56.742;38.866;2023-04-03T02:05:42;17.6;;;8.9;;
28455;SDS011;15682;56.742;38.866;2023-04-03T02:07:42;18.6;;;9.5;;
28455;SDS011;15682;56.742;38.866;2023-04-03T02:09:43;18.2;;;9.2;;
28455;SDS011;15682;56.742;38.866;2023-04-03T02:11:43;15.8;;;8.4;;
28455;SDS011;15682;56.742;38.866;2023-04-03T02:13:43;15.1;;;8.5;;
28455;SDS011;15682;56.742;38.866;2023-04-03T02:15:43;14.4;;;8.7;;
28455;SDS011;15682;56.742;38.866;2023-04-03T02:17:43;16.1;;;8.4;;
28455;SDS011;15682;56.742;38.866;2023-04-03T02:19:43;17.1;;;8.8;;
28455;SDS011;15682;56.742;38.866;2023-04-03T02:21:43;16.4;;;8.6;;
28455;SDS011;15682;56.742;38.866;2023-04-03T02:23:43;17.7;;;9.3;;
28455;SDS011;15682;56.742;38.866;2023-04-03T02:25:43;16.9;;;9.0;;
28455;SDS011;15682;56.742;38.866;2023-04-03T02:27:43;16.6;;;9.2;;
28455;SDS011;15682;56.742;38.866;2023-04-03T02:29:43;20.0;;;9.1;;
28455;SDS011;15682;56.742;38.866;2023-04-03T02:31:43;18.6;;;9.3;;
28455;SDS011;15682;56.742;38.866;2023-04-03T02:33:43;17.9;;;8.7;;
28455;SDS011;15682;56.742;38.866;2023-04-03T02:35:43;19.8;;;8.8;;
28455;SDS011;15682;56.742;38.866;2023-04-03T02:37:43;15.7;;;9.0;;
28455;SDS011;15682;56.742;38.866;2023-04-03T02:39:44;15.5;;;9.0;;
28455;SDS011;15682;56.742;38.866;2023-04-03T02:41:44;16.2;;;8.9;;
28455;SDS011;15682;56.742;38.866;2023-04-03T02:43:44;20.2;;;10.2;;
28455;SDS011;15682;56.742;38.866;2023-04-03T02:45:44;19.1;;;9.5;;
28455;SDS011;15682;56.742;38.866;2023-04-03T02:47:44;17.0;;;9.3;;
28455;SDS011;15682;56.742;38.866;2023-04-03T02:49:44;15.9;;;8.8;;
28455;SDS011;15682;56.742;38.866;2023-04-03T02:51:44;21.0;;;9.7;;
28455;SDS011;15682;56.742;38.866;2023-04-03T02:53:44;15.9;;;9.6;;
28455;SDS011;15682;56.742;38.866;2023-04-03T02:55:44;17.0;;;9.2;;
28455;SDS011;15682;56.742;38.866;2023-04-03T02:57:44;15.7;;;9.4;;
28455;SDS011;15682;56.742;38.866;2023-04-03T02:59:44;16.7;;;9.2;;
28455;SDS011;15682;56.742;38.866;2023-04-03T03:01:44;18.0;;;9.8;;
28455;SDS011;15682;56.742;38.866;2023-04-03T03:03:44;17.0;;;8.9;;
28455;SDS011;15682;56.742;38.866;2023-04-03T03:05:44;17.5;;;9.2;;
28455;SDS011;15682;56.742;38.866;2023-04-03T03:07:44;22.3;;;9.9;;
28455;SDS011;15682;56.742;38.866;2023-04-03T03:09:45;19.1;;;9.2;;
28455;SDS011;15682;56.742;38.866;2023-04-03T03:11:45;24.7;;;10.4;;
28455;SDS011;15682;56.742;38.866;2023-04-03T03:13:45;16.3;;;8.8;;
28455;SDS011;15682;56.742;38.866;2023-04-03T03:15:45;18.7;;;9.1;;
28455;SDS011;15682;56.742;38.866;2023-04-03T03:17:45;16.3;;;8.6;;
28455;SDS011;15682;56.742;38.866;2023-04-03T03:19:45;18.0;;;9.5;;
28455;SDS011;15682;56.742;38.866;2023-04-03T03:21:45;17.5;;;9.0;;
28455;SDS011;15682;56.742;38.866;2023-04-03T03:23:45;16.6;;;8.7;;
28455;SDS011;15682;56.742;38.866;2023-04-03T03:25:45;14.9;;;8.9;;
28455;SDS011;15682;56.742;38.866;2023-04-03T03:27:45;18.5;;;9.9;;
28455;SDS011;15682;56.742;38.866;2023-04-03T03:29:45;17.8;;;9.2;;
28455;SDS011;15682;56.742;38.866;2023-04-03T03:31:45;14.7;;;8.5;;
28455;SDS011;15682;56.742;38.866;2023-04-03T03:33:46;17.7;;;9.1;;
28455;SDS011;15682;56.742;38.866;2023-04-03T03:35:46;17.2;;;8.8;;
28455;SDS011;15682;56.742;38.866;2023-04-03T03:37:46;16.8;;;9.0;;
28455;SDS011;15682;56.742;38.866;2023-04-03T03:39:46;17.8;;;9.0;;
28455;SDS011;15682;56.742;38.866;2023-04-03T03:41:46;17.6;;;8.9;;
28455;SDS011;15682;56.742;38.866;2023-04-03T03:43:46;16.6;;;9.0;;
28455;SDS011;15682;56.742;38.866;2023-04-03T03:45:49;16.1;;;8.2;;
28455;SDS011;15682;56.742;38.866;2023-04-03T03:47:46;17.5;;;8.7;;
28455;SDS011;15682;56.742;38.866;2023-04-03T03:49:46;15.9;;;8.8;;
28455;SDS011;15682;56.742;38.866;2023-04-03T03:51:46;16.8;;;9.1;;
28455;SDS011;15682;56.742;38.866;2023-04-03T03:53:46;15.4;;;8.6;;
28455;SDS011;15682;56.742;38.866;2023-04-03T03:55:47;15.3;;;8.6;;
28455;SDS011;15682;56.742;38.866;2023-04-03T03:57:47;20.7;;;9.1;;
28455;SDS011;15682;56.742;38.866;2023-04-03T03:59:47;15.6;;;8.1;;
28455;SDS011;15682;56.742;38.866;2023-04-03T04:01:47;14.6;;;8.3;;
28455;SDS011;15682;56.742;38.866;2023-04-03T04:03:47;15.8;;;8.6;;
28455;SDS011;15682;56.742;38.866;2023-04-03T04:05:47;18.4;;;9.0;;
28455;SDS011;15682;56.742;38.866;2023-04-03T04:07:47;14.1;;;8.6;;
28455;SDS011;15682;56.742;38.866;2023-04-03T04:09:47;17.3;;;8.6;;
28455;SDS011;15682;56.742;38.866;2023-04-03T04:11:47;12.7;;;8.2;;
28455;SDS011;15682;56.742;38.866;2023-04-03T04:13:47;15.4;;;8.8;;
28455;SDS011;15682;56.742;38.866;2023-04-03T04:15:47;17.6;;;9.4;;
28455;SDS011;15682;56.742;38.866;2023-04-03T04:17:47;21.4;;;11.8;;
28455;SDS011;15682;56.742;38.866;2023-04-03T04:19:48;17.1;;;9.7;;
28455;SDS011;15682;56.742;38.866;2023-04-03T04:21:48;16.7;;;10.0;;
28455;SDS011;15682;56.742;38.866;2023-04-03T04:23:48;15.6;;;8.4;;
28455;SDS011;15682;56.742;38.866;2023-04-03T04:25:48;16.5;;;8.4;;
28455;SDS011;15682;56.742;38.866;2023-04-03T04:27:48;16.6;;;8.1;;
28455;SDS011;15682;56.742;38.866;2023-04-03T04:29:48;14.4;;;7.8;;
28455;SDS011;15682;56.742;38.866;2023-04-03T04:31:48;13.9;;;7.4;;
28455;SDS011;15682;56.742;38.866;2023-04-03T04:33:48;14.4;;;8.4;;
28455;SDS011;15682;56.742;38.866;2023-04-03T04:35:48;17.3;;;8.2;;
28455;SDS011;15682;56.742;38.866;2023-04-03T04:37:48;17.1;;;8.0;;
28455;SDS011;15682;56.742;38.866;2023-04-03T04:39:49;15.4;;;7.8;;
28455;SDS011;15682;56.742;38.866;2023-04-03T04:41:49;17.6;;;8.1;;
28455;SDS011;15682;56.742;38.866;2023-04-03T04:43:49;13.8;;;8.0;;
28455;SDS011;15682;56.742;38.866;2023-04-03T04:45:57;17.2;;;7.8;;
28455;SDS011;15682;56.742;38.866;2023-04-03T04:47:49;13.9;;;8.0;;
28455;SDS011;15682;56.742;38.866;2023-04-03T04:49:49;13.1;;;8.0;;
28455;SDS011;15682;56.742;38.866;2023-04-03T04:51:49;13.4;;;7.9;;
28455;SDS011;15682;56.742;38.866;2023-04-03T04:53:49;16.9;;;8.7;;
28455;SDS011;15682;56.742;38.866;2023-04-03T04:55:49;14.1;;;8.1;;
28455;SDS011;15682;56.742;38.866;2023-04-03T04:57:49;18.8;;;8.6;;
28455;SDS011;15682;56.742;38.866;2023-04-03T04:59:50;13.4;;;8.8;;
28455;SDS011;15682;56.742;38.866;2023-04-03T05:01:50;14.4;;;8.7;;
28455;SDS011;15682;56.742;38.866;2023-04-03T05:03:50;17.1;;;8.7;;
28455;SDS011;15682;56.742;38.866;2023-04-03T05:05:50;16.1;;;7.9;;
28455;SDS011;15682;56.742;38.866;2023-04-03T05:07:50;14.9;;;8.0;;
28455;SDS011;15682;56.742;38.866;2023-04-03T05:09:50;13.8;;;7.2;;
28455;SDS011;15682;56.742;38.866;2023-04-03T05:11:50;14.8;;;7.8;;
28455;SDS011;15682;56.742;38.866;2023-04-03T05:13:50;15.4;;;7.7;;
28455;SDS011;15682;56.742;38.866;2023-04-03T05:15:50;14.1;;;7.1;;
28455;SDS011;15682;56.742;38.866;2023-04-03T05:17:50;12.7;;;7.4;;
28455;SDS011;15682;56.742;38.866;2023-04-03T05:19:50;15.0;;;7.1;;
28455;SDS011;15682;56.742;38.866;2023-04-03T05:21:51;14.6;;;7.6;;
28455;SDS011;15682;56.742;38.866;2023-04-03T05:23:51;14.1;;;7.9;;
28455;SDS011;15682;56.742;38.866;2023-04-03T05:25:51;16.4;;;9.2;;
28455;SDS011;15682;56.742;38.866;2023-04-03T05:27:51;14.8;;;8.1;;
28455;SDS011;15682;56.742;38.866;2023-04-03T05:29:52;11.3;;;7.5;;
28455;SDS011;15682;56.742;38.866;2023-04-03T05:31:51;19.6;;;8.8;;
28455;SDS011;15682;56.742;38.866;2023-04-03T05:33:51;14.0;;;8.4;;
28455;SDS011;15682;56.742;38.866;2023-04-03T05:35:51;15.1;;;8.0;;
28455;SDS011;15682;56.742;38.866;2023-04-03T05:37:51;17.8;;;8.0;;
28455;SDS011;15682;56.742;38.866;2023-04-03T05:39:51;14.3;;;8.2;;
28455;SDS011;15682;56.742;38.866;2023-04-03T05:41:51;17.8;;;8.6;;
28455;SDS011;15682;56.742;38.866;2023-04-03T05:43:52;20.8;;;8.8;;
28455;SDS011;15682;56.742;38.866;2023-04-03T05:45:52;15.2;;;8.4;;
28455;SDS011;15682;56.742;38.866;2023-04-03T05:47:52;19.1;;;8.8;;
28455;SDS011;15682;56.742;38.866;2023-04-03T05:49:52;15.6;;;7.9;;
28455;SDS011;15682;56.742;38.866;2023-04-03T05:51:52;13.9;;;7.4;;
28455;SDS011;15682;56.742;38.866;2023-04-03T05:53:54;15.3;;;7.7;;
28455;SDS011;15682;56.742;38.866;2023-04-03T05:55:52;14.3;;;7.5;;
28455;SDS011;15682;56.742;38.866;2023-04-03T05:57:53;13.7;;;7.3;;
28455;SDS011;15682;56.742;38.866;2023-04-03T05:59:53;13.7;;;6.8;;
28455;SDS011;15682;56.742;38.866;2023-04-03T06:01:53;14.4;;;7.1;;
28455;SDS011;15682;56.742;38.866;2023-04-03T06:03:53;13.9;;;7.0;;
28455;SDS011;15682;56.742;38.866;2023-04-03T06:05:53;14.8;;;7.1;;
28455;SDS011;15682;56.742;38.866;2023-04-03T06:07:53;14.6;;;7.1;;
28455;SDS011;15682;56.742;38.866;2023-04-03T06:09:54;13.4;;;7.0;;
28455;SDS011;15682;56.742;38.866;2023-04-03T06:11:54;15.4;;;7.2;;
28455;SDS011;15682;56.742;38.866;2023-04-03T06:13:54;13.3;;;7.3;;
28455;SDS011;15682;56.742;38.866;2023-04-03T06:15:54;13.5;;;7.5;;
28455;SDS011;15682;56.742;38.866;2023-04-03T06:17:54;13.9;;;7.6;;
28455;SDS011;15682;56.742;38.866;2023-04-03T06:19:54;15.6;;;7.6;;
28455;SDS011;15682;56.742;38.866;2023-04-03T06:21:54;15.3;;;7.6;;
28455;SDS011;15682;56.742;38.866;2023-04-03T06:23:55;14.2;;;7.8;;
28455;SDS011;15682;56.742;38.866;2023-04-03T06:25:55;14.2;;;7.9;;
28455;SDS011;15682;56.742;38.866;2023-04-03T06:27:55;12.4;;;7.3;;
28455;SDS011;15682;56.742;38.866;2023-04-03T06:29:55;18.5;;;7.2;;
28455;SDS011;15682;56.742;38.866;2023-04-03T06:31:56;13.9;;;7.2;;
28455;SDS011;15682;56.742;38.866;2023-04-03T06:33:56;15.3;;;7.6;;
28455;SDS011;15682;56.742;38.866;2023-04-03T06:35:57;13.3;;;7.7;;
28455;SDS011;15682;56.742;38.866;2023-04-03T06:37:56;13.5;;;7.4;;
28455;SDS011;15682;56.742;38.866;2023-04-03T06:39:56;14.3;;;7.0;;
28455;SDS011;15682;56.742;38.866;2023-04-03T06:41:56;12.9;;;7.0;;
28455;SDS011;15682;56.742;38.866;2023-04-03T06:43:57;13.7;;;6.8;;
28455;SDS011;15682;56.742;38.866;2023-04-03T06:45:57;14.9;;;7.2;;
28455;SDS011;15682;56.742;38.866;2023-04-03T06:47:57;14.4;;;7.5;;
28455;SDS011;15682;56.742;38.866;2023-04-03T06:49:57;14.9;;;7.0;;
28455;SDS011;15682;56.742;38.866;2023-04-03T06:51:57;9.7;;;6.9;;
28455;SDS011;15682;56.742;38.866;2023-04-03T06:53:58;12.4;;;7.1;;
28455;SDS011;15682;56.742;38.866;2023-04-03T06:55:58;13.8;;;7.3;;
28455;SDS011;15682;56.742;38.866;2023-04-03T06:57:58;13.7;;;7.4;;
28455;SDS011;15682;56.742;38.866;2023-04-03T06:59:58;14.6;;;7.7;;
28455;SDS011;15682;56.742;38.866;2023-04-03T07:01:58;16.5;;;8.5;;
28455;SDS011;15682;56.742;38.866;2023-04-03T07:03:58;16.0;;;7.9;;
28455;SDS011;15682;56.742;38.866;2023-04-03T07:05:59;13.5;;;7.6;;
28455;SDS011;15682;56.742;38.866;2023-04-03T07:07:59;15.0;;;8.0;;
28455;SDS011;15682;56.742;38.866;2023-04-03T07:09:59;16.3;;;7.8;;
28455;SDS011;15682;56.742;38.866;2023-04-03T07:11:59;13.6;;;8.1;;
28455;SDS011;15682;56.742;38.866;2023-04-03T07:13:59;12.3;;;7.3;;
28455;SDS011;15682;56.742;38.866;2023-04-03T07:16:00;16.8;;;7.6;;
28455;SDS011;15682;56.742;38.866;2023-04-03T07:18:00;15.0;;;7.2;;
28455;SDS011;15682;56.742;38.866;2023-04-03T07:20:00;12.4;;;7.6;;
28455;SDS011;15682;56.742;38.866;2023-04-03T07:22:00;15.4;;;7.4;;
28455;SDS011;15682;56.742;38.866;2023-04-03T07:24:00;16.2;;;8.0;;
28455;SDS011;15682;56.742;38.866;2023-04-03T07:26:00;14.6;;;7.4;;
28455;SDS011;15682;56.742;38.866;2023-04-03T07:28:01;16.1;;;7.9;;
28455;SDS011;15682;56.742;38.866;2023-04-03T07:30:01;16.3;;;8.3;;
28455;SDS011;15682;56.742;38.866;2023-04-03T07:32:01;15.4;;;8.6;;
28455;SDS011;15682;56.742;38.866;2023-04-03T07:34:01;14.4;;;8.6;;
28455;SDS011;15682;56.742;38.866;2023-04-03T07:36:02;21.1;;;9.9;;
28455;SDS011;15682;56.742;38.866;2023-04-03T07:38:02;19.1;;;9.5;;
28455;SDS011;15682;56.742;38.866;2023-04-03T07:40:02;20.5;;;10.2;;
28455;SDS011;15682;56.742;38.866;2023-04-03T07:42:02;17.3;;;10.5;;
28455;SDS011;15682;56.742;38.866;2023-04-03T07:44:02;26.3;;;14.2;;
28455;SDS011;15682;56.742;38.866;2023-04-03T07:46:04;17.4;;;9.3;;
28455;SDS011;15682;56.742;38.866;2023-04-03T07:48:03;25.4;;;13.6;;
28455;SDS011;15682;56.742;38.866;2023-04-03T07:50:04;19.7;;;10.1;;
28455;SDS011;15682;56.742;38.866;2023-04-03T07:52:03;15.7;;;9.4;;
28455;SDS011;15682;56.742;38.866;2023-04-03T07:54:04;16.1;;;8.7;;
28455;SDS011;15682;56.742;38.866;2023-04-03T07:56:04;18.3;;;9.7;;
28455;SDS011;15682;56.742;38.866;2023-04-03T07:58:04;21.2;;;8.3;;
28455;SDS011;15682;56.742;38.866;2023-04-03T08:00:05;15.1;;;8.2;;
28455;SDS011;15682;56.742;38.866;2023-04-03T08:02:05;15.2;;;7.7;;
28455;SDS011;15682;56.742;38.866;2023-04-03T08:04:05;13.7;;;8.1;;
28455;SDS011;15682;56.742;38.866;2023-04-03T08:06:06;14.9;;;8.2;;
28455;SDS011;15682;56.742;38.866;2023-04-03T08:08:06;15.3;;;8.6;;
28455;SDS011;15682;56.742;38.866;2023-04-03T08:10:06;18.5;;;9.4;;
28455;SDS011;15682;56.742;38.866;2023-04-03T08:12:06;19.8;;;9.8;;
28455;SDS011;15682;56.742;38.866;2023-04-03T08:14:06;17.1;;;8.9;;
28455;SDS011;15682;56.742;38.866;2023-04-03T08:16:07;17.0;;;8.3;;
28455;SDS011;15682;56.742;38.866;2023-04-03T08:18:06;16.7;;;8.3;;
28455;SDS011;15682;56.742;38.866;2023-04-03T08:20:07;17.5;;;10.7;;
28455;SDS011;15682;56.742;38.866;2023-04-03T08:22:07;22.9;;;12.6;;
28455;SDS011;15682;56.742;38.866;2023-04-03T08:24:08;23.4;;;15.0;;
28455;SDS011;15682;56.742;38.866;2023-04-03T08:26:08;62.2;;;42.9;;
28455;SDS011;15682;56.742;38.866;2023-04-03T08:28:08;36.8;;;20.1;;
28455;SDS011;15682;56.742;38.866;2023-04-03T08:30:08;24.0;;;10.7;;
28455;SDS011;15682;56.742;38.866;2023-04-03T08:32:08;16.5;;;7.0;;
28455;SDS011;15682;56.742;38.866;2023-04-03T08:34:08;17.7;;;7.0;;
28455;SDS011;15682;56.742;38.866;2023-04-03T08:36:16;16.2;;;6.6;;
28455;SDS011;15682;56.742;38.866;2023-04-03T08:38:09;19.9;;;7.4;;
28455;SDS011;15682;56.742;38.866;2023-04-03T08:40:12;12.7;;;6.4;;
28455;SDS011;15682;56.742;38.866;2023-04-03T08:42:13;18.0;;;7.0;;
28455;SDS011;15682;56.742;38.866;2023-04-03T08:44:14;14.7;;;7.3;;
28455;SDS011;15682;56.742;38.866;2023-04-03T08:46:11;16.2;;;7.0;;
28455;SDS011;15682;56.742;38.866;2023-04-03T08:48:12;22.9;;;6.9;;
28455;SDS011;15682;56.742;38.866;2023-04-03T08:50:11;26.8;;;7.4;;
28455;SDS011;15682;56.742;38.866;2023-04-03T08:52:11;20.0;;;6.9;;
28455;SDS011;15682;56.742;38.866;2023-04-03T08:54:14;13.3;;;6.7;;
28455;SDS011;15682;56.742;38.866;2023-04-03T08:56:11;14.7;;;6.6;;
28455;SDS011;15682;56.742;38.866;2023-04-03T08:58:12;13.9;;;6.6;;
28455;SDS011;15682;56.742;38.866;2023-04-03T09:00:16;32.3;;;6.8;;
28455;SDS011;15682;56.742;38.866;2023-04-03T09:02:18;19.5;;;7.6;;
28455;SDS011;15682;56.742;38.866;2023-04-03T09:04:13;16.2;;;6.6;;
28455;SDS011;15682;56.742;38.866;2023-04-03T09:06:13;15.3;;;6.4;;
28455;SDS011;15682;56.742;38.866;2023-04-03T09:08:14;20.9;;;6.5;;
28455;SDS011;15682;56.742;38.866;2023-04-03T09:10:14;12.4;;;6.0;;
28455;SDS011;15682;56.742;38.866;2023-04-03T09:12:16;13.7;;;6.0;;
28455;SDS011;15682;56.742;38.866;2023-04-03T09:14:14;13.1;;;5.8;;
28455;SDS011;15682;56.742;38.866;2023-04-03T09:16:18;26.2;;;7.0;;
28455;SDS011;15682;56.742;38.866;2023-04-03T09:18:17;19.6;;;6.1;;
28455;SDS011;15682;56.742;38.866;2023-04-03T09:20:17;15.3;;;5.8;;
28455;SDS011;15682;56.742;38.866;2023-04-03T09:22:16;19.9;;;5.5;;
28455;SDS011;15682;56.742;38.866;2023-04-03T09:24:15;11.4;;;4.4;;
28455;SDS011;15682;56.742;38.866;2023-04-03T09:26:16;14.2;;;4.9;;
28455;SDS011;15682;56.742;38.866;2023-04-03T09:28:15;13.6;;;4.8;;
28455;SDS011;15682;56.742;38.866;2023-04-03T09:30:16;17.8;;;5.9;;
28455;SDS011;15682;56.742;38.866;2023-04-03T09:32:18;14.2;;;4.7;;
28455;SDS011;15682;56.742;38.866;2023-04-03T09:34:19;18.1;;;5.1;;
28455;SDS011;15682;56.742;38.866;2023-04-03T09:38:18;22.3;;;5.1;;
28455;SDS011;15682;56.742;38.866;2023-04-03T09:42:18;13.5;;;4.3;;
28455;SDS011;15682;56.742;38.866;2023-04-03T09:44:20;21.9;;;5.0;;
28455;SDS011;15682;56.742;38.866;2023-04-03T09:46:20;18.5;;;4.6;;
28455;SDS011;15682;56.742;38.866;2023-04-03T09:48:18;18.2;;;4.7;;
28455;SDS011;15682;56.742;38.866;2023-04-03T09:50:19;14.9;;;4.3;;
28455;SDS011;15682;56.742;38.866;2023-04-03T09:52:19;16.5;;;4.9;;
28455;SDS011;15682;56.742;38.866;2023-04-03T09:56:19;20.3;;;5.0;;
28455;SDS011;15682;56.742;38.866;2023-04-03T09:58:23;14.1;;;4.4;;
28455;SDS011;15682;56.742;38.866;2023-04-03T10:00:20;18.0;;;4.6;;
28455;SDS011;15682;56.742;38.866;2023-04-03T10:02:22;15.1;;;4.9;;
28455;SDS011;15682;56.742;38.866;2023-04-03T10:04:19;19.6;;;5.0;;
28455;SDS011;15682;56.742;38.866;2023-04-03T10:06:21;16.5;;;4.4;;
28455;SDS011;15682;56.742;38.866;2023-04-03T10:08:21;17.8;;;4.5;;
28455;SDS011;15682;56.742;38.866;2023-04-03T10:10:21;10.9;;;4.1;;
28455;SDS011;15682;56.742;38.866;2023-04-03T10:12:20;12.9;;;4.5;;
28455;SDS011;15682;56.742;38.866;2023-04-03T10:14:21;18.7;;;4.4;;
28455;SDS011;15682;56.742;38.866;2023-04-03T10:16:23;9.6;;;4.1;;
28455;SDS011;15682;56.742;38.866;2023-04-03T10:18:26;19.5;;;4.2;;
28455;SDS011;15682;56.742;38.866;2023-04-03T10:20:26;13.4;;;4.2;;
28455;SDS011;15682;56.742;38.866;2023-04-03T10:22:24;43.7;;;4.6;;
28455;SDS011;15682;56.742;38.866;2023-04-03T10:24:23;19.0;;;4.2;;
28455;SDS011;15682;56.742;38.866;2023-04-03T10:26:26;19.0;;;4.1;;
28455;SDS011;15682;56.742;38.866;2023-04-03T10:28:24;15.9;;;4.0;;
28455;SDS011;15682;56.742;38.866;2023-04-03T10:30:28;18.4;;;4.3;;
28455;SDS011;15682;56.742;38.866;2023-04-03T10:32:27;17.6;;;4.2;;
28455;SDS011;15682;56.742;38.866;2023-04-03T10:34:24;17.6;;;4.6;;
28455;SDS011;15682;56.742;38.866;2023-04-03T10:36:26;11.0;;;4.0;;
28455;SDS011;15682;56.742;38.866;2023-04-03T10:38:27;13.4;;;4.5;;
28455;SDS011;15682;56.742;38.866;2023-04-03T10:40:28;19.2;;;4.1;;
28455;SDS011;15682;56.742;38.866;2023-04-03T10:42:26;26.8;;;4.5;;
28455;SDS011;15682;56.742;38.866;2023-04-03T10:44:28;22.7;;;4.6;;
28455;SDS011;15682;56.742;38.866;2023-04-03T10:46:27;16.7;;;4.4;;
28455;SDS011;15682;56.742;38.866;2023-04-03T10:48:29;22.8;;;4.4;;
28455;SDS011;15682;56.742;38.866;2023-04-03T10:50:28;24.3;;;4.6;;
28455;SDS011;15682;56.742;38.866;2023-04-03T10:52:28;25.4;;;4.5;;
28455;SDS011;15682;56.742;38.866;2023-04-03T10:54:27;20.4;;;4.2;;
28455;SDS011;15682;56.742;38.866;2023-04-03T10:56:30;17.9;;;3.7;;
28455;SDS011;15682;56.742;38.866;2023-04-03T10:58:29;14.9;;;3.8;;
28455;SDS011;15682;56.742;38.866;2023-04-03T11:00:29;21.9;;;4.2;;
28455;SDS011;15682;56.742;38.866;2023-04-03T11:02:28;10.9;;;4.0;;
28455;SDS011;15682;56.742;38.866;2023-04-03T11:04:28;17.8;;;4.3;;
28455;SDS011;15682;56.742;38.866;2023-04-03T11:06:30;16.9;;;4.1;;
28455;SDS011;15682;56.742;38.866;2023-04-03T11:08:29;19.3;;;4.4;;
28455;SDS011;15682;56.742;38.866;2023-04-03T11:10:31;17.7;;;4.6;;
28455;SDS011;15682;56.742;38.866;2023-04-03T11:12:31;18.3;;;4.3;;
28455;SDS011;15682;56.742;38.866;2023-04-03T11:14:30;16.6;;;4.1;;
28455;SDS011;15682;56.742;38.866;2023-04-03T11:16:30;33.1;;;4.9;;
28455;SDS011;15682;56.742;38.866;2023-04-03T11:18:32;26.0;;;4.4;;
28455;SDS011;15682;56.742;38.866;2023-04-03T11:20:30;9.5;;;4.0;;
28455;SDS011;15682;56.742;38.866;2023-04-03T11:22:30;11.5;;;3.6;;
28455;SDS011;15682;56.742;38.866;2023-04-03T11:24:31;15.8;;;4.2;;
28455;SDS011;15682;56.742;38.866;2023-04-03T11:26:31;18.2;;;4.2;;
28455;SDS011;15682;56.742;38.866;2023-04-03T11:28:31;19.9;;;4.3;;
28455;SDS011;15682;56.742;38.866;2023-04-03T11:30:32;13.0;;;4.1;;
28455;SDS011;15682;56.742;38.866;2023-04-03T11:32:36;23.0;;;4.2;;
28455;SDS011;15682;56.742;38.866;2023-04-03T11:34:33;24.9;;;4.3;;
28455;SDS011;15682;56.742;38.866;2023-04-03T11:36:32;24.7;;;4.4;;
28455;SDS011;15682;56.742;38.866;2023-04-03T11:38:33;16.5;;;4.1;;
28455;SDS011;15682;56.742;38.866;2023-04-03T11:40:33;22.4;;;4.2;;
28455;SDS011;15682;56.742;38.866;2023-04-03T11:42:34;13.4;;;3.9;;
28455;SDS011;15682;56.742;38.866;2023-04-03T11:44:35;20.0;;;4.6;;
28455;SDS011;15682;56.742;38.866;2023-04-03T11:50:42;15.6;;;3.9;;
28455;SDS011;15682;56.742;38.866;2023-04-03T11:54:35;16.1;;;3.9;;
28455;SDS011;15682;56.742;38.866;2023-04-03T11:56:34;11.2;;;3.8;;
28455;SDS011;15682;56.742;38.866;2023-04-03T11:58:35;17.7;;;4.2;;
28455;SDS011;15682;56.742;38.866;2023-04-03T12:02:36;22.8;;;4.6;;
28455;SDS011;15682;56.742;38.866;2023-04-03T12:04:35;14.3;;;3.5;;
28455;SDS011;15682;56.742;38.866;2023-04-03T12:06:43;18.2;;;4.1;;
28455;SDS011;15682;56.742;38.866;2023-04-03T12:08:43;14.2;;;3.7;;
28455;SDS011;15682;56.742;38.866;2023-04-03T12:10:37;18.7;;;4.0;;
28455;SDS011;15682;56.742;38.866;2023-04-03T12:12:37;17.7;;;4.4;;
28455;SDS011;15682;56.742;38.866;2023-04-03T12:14:37;24.9;;;4.2;;
28455;SDS011;15682;56.742;38.866;2023-04-03T12:16:41;12.2;;;3.9;;
28455;SDS011;15682;56.742;38.866;2023-04-03T12:18:40;21.2;;;4.8;;